Time;durP1;ratioP1;P1;durP2;ratioP2;P2;SDS_P1;SDS_P2;PMS_P1;PMS_P2;Temp;Humidity;BMP_temperature;BMP_pressure;BME280_temperature;BME280_humidity;BME280_pressure;Samples;Min_cycle;Max_cycle;Signal;HPM_P1;HPM_P2
2021/09/04 00:00:04;;;;;;;10.13;9.13;;;19.30;72.50;;;;;;4997542;28;20194;-88
2021/09/04 00:02:30;;;;;;;10.18;9.18;;;19.30;72.00;;;;;;4999695;28;20198;-88
2021/09/04 00:04:56;;;;;;;10.02;9.13;;;19.20;71.70;;;;;;4997146;28;20228;-88
2021/09/04 00:07:21;;;;;;;10.32;9.27;;;19.10;72.00;;;;;;5003679;28;20751;-88
2021/09/04 00:09:47;;;;;;;9.30;8.40;;;18.90;73.30;;;;;;5001795;28;20191;-88
2021/09/04 00:12:13;;;;;;;9.82;8.80;;;18.80;73.50;;;;;;5005057;28;20260;-88
2021/09/04 00:14:39;;;;;;;9.98;9.07;;;19.00;73.10;;;;;;5007787;28;20658;-88
2021/09/04 00:17:05;;;;;;;8.25;7.55;;;19.20;73.00;;;;;;5004702;28;20228;-88
2021/09/04 00:19:31;;;;;;;9.95;9.15;;;19.20;73.10;;;;;;5005258;28;20209;-88
2021/09/04 00:21:57;;;;;;;9.05;7.90;;;19.20;72.80;;;;;;5007832;28;20186;-88
2021/09/04 00:24:22;;;;;;;9.68;8.68;;;19.10;71.30;;;;;;5004424;28;20213;-88
2021/09/04 00:26:48;;;;;;;9.07;8.18;;;19.00;72.60;;;;;;5006035;28;20226;-88
2021/09/04 00:29:14;;;;;;;9.45;8.55;;;19.00;72.70;;;;;;5006215;28;20190;-88
2021/09/04 00:31:40;;;;;;;9.95;8.90;;;19.10;72.50;;;;;;5005352;28;20190;-88
2021/09/04 00:34:06;;;;;;;9.10;8.30;;;19.20;72.60;;;;;;5004181;28;20236;-88
2021/09/04 00:36:32;;;;;;;10.18;7.68;;;19.20;72.10;;;;;;5005618;28;20999;-88
2021/09/04 00:38:57;;;;;;;7.78;7.18;;;19.00;71.20;;;;;;4993441;28;20214;-88
2021/09/04 00:41:23;;;;;;;8.57;7.75;;;18.80;73.40;;;;;;5000031;28;20186;-88
2021/09/04 00:43:50;;;;;;;10.52;7.90;;;18.90;73.10;;;;;;5005964;28;20178;-88
2021/09/04 00:46:15;;;;;;;7.55;6.80;;;19.00;72.50;;;;;;5007730;28;20189;-88
2021/09/04 00:48:42;;;;;;;9.00;8.20;;;18.90;72.80;;;;;;5003948;28;20197;-88
2021/09/04 00:51:08;;;;;;;8.30;7.60;;;19.00;72.80;;;;;;5005246;28;20249;-88
2021/09/04 00:53:36;;;;;;;9.18;8.38;;;19.00;72.40;;;;;;5006574;28;20198;-88
2021/09/04 00:56:02;;;;;;;8.73;7.93;;;19.10;72.10;;;;;;5006662;28;20193;-88
2021/09/04 00:58:30;;;;;;;8.23;7.20;;;19.10;72.00;;;;;;5007166;28;20237;-88
2021/09/04 01:00:58;;;;;;;8.40;7.72;;;19.10;71.90;;;;;;5006660;28;20678;-88
2021/09/04 01:03:24;;;;;;;8.40;7.60;;;18.90;72.20;;;;;;5002550;28;20289;-88
2021/09/04 01:05:50;;;;;;;8.95;8.25;;;18.90;72.60;;;;;;5005377;28;20214;-88
2021/09/04 01:08:16;;;;;;;7.95;7.20;;;18.80;72.30;;;;;;5003954;28;20196;-88
2021/09/04 01:10:43;;;;;;;8.70;7.82;;;18.80;72.10;;;;;;5004941;28;20246;-88
2021/09/04 01:13:09;;;;;;;7.90;7.00;;;18.70;73.40;;;;;;5007295;28;20194;-88
2021/09/04 01:15:36;;;;;;;9.18;7.85;;;18.50;73.70;;;;;;5008123;28;20205;-88
2021/09/04 01:18:03;;;;;;;7.90;7.20;;;18.50;72.80;;;;;;5000238;28;20218;-87
2021/09/04 01:20:30;;;;;;;8.32;7.53;;;18.40;74.50;;;;;;5016243;28;20241;-88
2021/09/04 01:22:55;;;;;;;8.52;6.95;;;18.40;73.70;;;;;;5016918;28;20190;-87
2021/09/04 01:25:26;;;;;;;7.78;7.13;;;18.50;73.70;;;;;;5018081;28;20221;-88
2021/09/04 01:27:53;;;;;;;8.65;7.75;;;18.60;73.10;;;;;;5004109;28;20178;-87
2021/09/04 01:30:19;;;;;;;7.93;7.22;;;18.70;72.80;;;;;;5023249;28;20277;-88
2021/09/04 01:32:45;;;;;;;10.88;7.28;;;18.70;73.60;;;;;;5007933;28;20257;-88
2021/09/04 01:35:13;;;;;;;9.35;7.57;;;18.70;73.40;;;;;;5008964;28;20214;-88
2021/09/04 01:37:39;;;;;;;9.40;7.53;;;18.50;73.00;;;;;;5009116;28;20312;-88
2021/09/04 01:40:10;;;;;;;7.63;7.03;;;18.50;73.10;;;;;;5007456;28;20205;-87
2021/09/04 01:42:35;;;;;;;7.40;6.78;;;18.50;73.30;;;;;;5005085;28;20206;-88
2021/09/04 01:45:01;;;;;;;8.02;7.32;;;18.30;72.70;;;;;;5009057;28;20227;-87
2021/09/04 01:47:27;;;;;;;7.18;6.47;;;18.30;73.50;;;;;;5032448;28;20217;-88
2021/09/04 01:49:56;;;;;;;7.30;6.80;;;18.40;73.60;;;;;;5017564;28;20192;-88
2021/09/04 01:52:23;;;;;;;6.97;6.38;;;18.50;73.10;;;;;;5017350;28;20181;-88
2021/09/04 01:54:50;;;;;;;7.25;6.57;;;18.50;72.10;;;;;;4999695;28;20222;-88
2021/09/04 01:57:16;;;;;;;6.75;6.25;;;18.50;72.50;;;;;;4992008;28;20215;-88
2021/09/04 01:59:42;;;;;;;6.82;6.22;;;18.40;72.70;;;;;;4998097;28;20257;-88
2021/09/04 02:02:08;;;;;;;6.95;6.35;;;18.40;72.90;;;;;;5003533;28;20192;-88
2021/09/04 02:04:34;;;;;;;6.95;6.35;;;18.50;72.90;;;;;;5003290;28;20237;-88
2021/09/04 02:07:01;;;;;;;6.72;6.18;;;18.40;73.50;;;;;;5005661;28;20190;-88
2021/09/04 02:09:27;;;;;;;7.60;6.80;;;18.40;73.90;;;;;;5000052;28;20249;-88
2021/09/04 02:11:53;;;;;;;6.97;6.32;;;18.40;74.10;;;;;;5019182;28;20281;-88
2021/09/04 02:14:19;;;;;;;7.10;6.40;;;18.40;74.30;;;;;;5003480;28;20221;-88
2021/09/04 02:16:46;;;;;;;6.78;6.28;;;18.30;73.20;;;;;;5004398;28;20207;-88
2021/09/04 02:19:12;;;;;;;7.32;6.68;;;18.20;73.10;;;;;;5001767;28;20214;-89
2021/09/04 02:21:38;;;;;;;7.05;6.35;;;18.10;74.00;;;;;;5003917;28;20273;-88
2021/09/04 02:24:04;;;;;;;7.53;6.80;;;18.10;73.90;;;;;;5002964;28;20221;-89
2021/09/04 02:26:30;;;;;;;7.38;6.68;;;18.20;73.80;;;;;;4985865;28;20200;-89
2021/09/04 02:28:56;;;;;;;6.63;6.03;;;18.20;73.70;;;;;;5003168;28;20815;-88
2021/09/04 02:31:25;;;;;;;7.00;6.45;;;18.20;71.80;;;;;;5005154;28;20200;-88
2021/09/04 02:33:55;;;;;;;7.18;6.57;;;18.20;72.80;;;;;;5004547;28;20196;-88
2021/09/04 02:36:21;;;;;;;6.85;6.15;;;18.20;72.90;;;;;;5003419;28;20190;-88
2021/09/04 02:38:47;;;;;;;7.00;6.40;;;18.20;73.20;;;;;;5003610;28;20210;-88
2021/09/04 02:41:13;;;;;;;6.50;5.90;;;18.10;73.30;;;;;;5003751;28;20206;-89
2021/09/04 02:43:40;;;;;;;6.55;6.03;;;18.10;72.80;;;;;;5017543;28;20226;-87
2021/09/04 02:46:07;;;;;;;7.00;6.50;;;18.10;73.00;;;;;;4994802;28;20201;-88
2021/09/04 02:48:33;;;;;;;8.02;7.28;;;18.10;73.20;;;;;;5002459;28;20201;-88
2021/09/04 02:50:59;;;;;;;7.32;6.65;;;18.20;73.10;;;;;;5004330;28;20603;-88
2021/09/04 02:53:25;;;;;;;7.05;6.45;;;18.10;73.00;;;;;;5004380;28;20193;-88
2021/09/04 02:55:51;;;;;;;6.70;6.10;;;18.00;73.00;;;;;;5002475;28;20198;-87
2021/09/04 02:58:17;;;;;;;6.80;6.25;;;18.00;73.40;;;;;;5004450;28;20209;-88
2021/09/04 03:00:42;;;;;;;7.32;6.65;;;18.00;73.10;;;;;;5003264;28;20197;-89
2021/09/04 03:03:08;;;;;;;9.00;6.43;;;18.00;72.90;;;;;;5003199;28;20235;-88
2021/09/04 03:05:35;;;;;;;7.22;6.43;;;18.00;73.20;;;;;;5004945;28;20202;-88
2021/09/04 03:08:02;;;;;;;7.80;7.10;;;18.10;73.50;;;;;;5004335;28;20302;-88
2021/09/04 03:10:28;;;;;;;7.15;6.57;;;18.10;72.90;;;;;;5003607;28;20182;-88
2021/09/04 03:12:54;;;;;;;7.38;6.72;;;18.00;71.80;;;;;;5004700;28;20197;-88
2021/09/04 03:15:20;;;;;;;11.07;6.57;;;17.80;73.30;;;;;;5004931;28;20236;-88
2021/09/04 03:17:46;;;;;;;7.50;6.07;;;17.70;73.80;;;;;;5005064;28;20213;-88
2021/09/04 03:20:12;;;;;;;7.28;6.13;;;17.70;74.30;;;;;;5005497;28;20269;-87
2021/09/04 03:22:38;;;;;;;6.95;6.28;;;17.70;73.70;;;;;;5005817;28;20229;-88
2021/09/04 03:25:05;;;;;;;6.60;5.75;;;17.80;73.20;;;;;;4999203;28;20203;-88
2021/09/04 03:27:31;;;;;;;6.63;6.13;;;17.80;72.80;;;;;;4993615;28;20199;-89
2021/09/04 03:29:58;;;;;;;7.32;6.60;;;17.80;72.90;;;;;;5004177;28;20189;-89
2021/09/04 03:32:25;;;;;;;7.00;6.03;;;17.70;73.00;;;;;;5006106;28;20194;-88
2021/09/04 03:34:52;;;;;;;7.70;6.57;;;17.70;74.40;;;;;;5003158;28;20231;-89
2021/09/04 03:37:19;;;;;;;6.93;6.32;;;17.70;74.00;;;;;;5004704;28;20226;-89
2021/09/04 03:39:45;;;;;;;7.10;6.50;;;17.60;73.50;;;;;;5006986;28;20200;-87
2021/09/04 03:42:10;;;;;;;7.27;6.57;;;17.60;74.00;;;;;;5002741;28;20260;-88
2021/09/04 03:44:37;;;;;;;7.10;6.40;;;17.60;72.80;;;;;;5006481;28;20237;-89
2021/09/04 03:47:03;;;;;;;6.50;6.00;;;17.30;74.10;;;;;;5010666;28;20225;-87
2021/09/04 03:49:29;;;;;;;7.32;6.47;;;17.30;75.30;;;;;;5009107;28;20187;-86
2021/09/04 03:51:55;;;;;;;7.17;6.40;;;17.30;74.70;;;;;;5010457;28;20278;-89
2021/09/04 03:54:21;;;;;;;7.83;6.70;;;17.40;74.60;;;;;;5009428;28;20217;-86
2021/09/04 03:56:47;;;;;;;8.77;6.50;;;17.40;75.00;;;;;;5007200;28;20204;-88
2021/09/04 03:59:13;;;;;;;7.60;6.70;;;17.40;74.70;;;;;;5008782;28;20214;-89
2021/09/04 04:01:39;;;;;;;7.80;6.93;;;17.40;74.70;;;;;;5007697;28;20189;-86
2021/09/04 04:04:05;;;;;;;7.03;6.33;;;17.30;75.30;;;;;;5006506;28;20221;-86
2021/09/04 04:06:31;;;;;;;7.87;6.57;;;17.30;74.50;;;;;;5007923;28;20214;-88
2021/09/04 04:08:57;;;;;;;7.43;6.73;;;17.40;74.10;;;;;;5008262;28;20284;-88
2021/09/04 04:11:23;;;;;;;7.20;6.50;;;17.30;74.80;;;;;;5009819;28;20247;-89
2021/09/04 04:13:50;;;;;;;7.70;6.77;;;17.00;73.70;;;;;;5008237;28;20266;-89
2021/09/04 04:16:15;;;;;;;6.70;6.07;;;16.60;75.00;;;;;;5008188;28;20681;-88
2021/09/04 04:18:41;;;;;;;7.20;6.43;;;16.30;77.70;;;;;;5009097;28;20230;-89
2021/09/04 04:21:07;;;;;;;7.00;6.50;;;16.40;77.90;;;;;;5006321;28;20194;-89
2021/09/04 04:23:34;;;;;;;6.80;6.20;;;16.60;77.20;;;;;;5004257;28;20469;-89
2021/09/04 04:25:59;;;;;;;7.67;6.87;;;16.70;77.50;;;;;;5006786;28;20205;-89
2021/09/04 04:28:26;;;;;;;7.00;6.40;;;16.90;76.50;;;;;;5025120;28;20250;-89
2021/09/04 04:30:52;;;;;;;9.43;7.07;;;17.00;75.70;;;;;;5004370;28;20199;-89
2021/09/04 04:33:18;;;;;;;8.23;6.10;;;17.00;75.10;;;;;;5008531;28;20629;-88
2021/09/04 04:35:44;;;;;;;6.70;6.03;;;17.00;74.20;;;;;;5006257;28;20713;-86
2021/09/04 04:38:10;;;;;;;6.70;6.00;;;17.00;75.30;;;;;;5004530;28;20218;-89
2021/09/04 04:40:37;;;;;;;7.67;6.30;;;17.10;75.00;;;;;;5002596;28;20343;-89
2021/09/04 04:43:03;;;;;;;7.60;6.80;;;17.20;74.70;;;;;;5006722;28;20272;-89
2021/09/04 04:45:29;;;;;;;6.63;6.03;;;17.10;72.70;;;;;;5007444;28;20643;-89
2021/09/04 04:47:54;;;;;;;6.40;5.90;;;16.90;74.60;;;;;;5004179;28;20200;-86
2021/09/04 04:50:20;;;;;;;7.17;5.60;;;17.00;75.00;;;;;;5003306;28;20199;-86
2021/09/04 04:52:46;;;;;;;8.05;7.25;;;17.10;74.60;;;;;;5004849;28;20603;-89
2021/09/04 04:55:12;;;;;;;8.13;7.23;;;17.10;75.90;;;;;;5001286;28;20216;-87
2021/09/04 04:57:38;;;;;;;7.53;6.83;;;17.10;76.80;;;;;;5006260;28;20201;-87
2021/09/04 05:00:05;;;;;;;7.70;7.00;;;17.20;77.30;;;;;;5005474;28;20188;-89
2021/09/04 05:02:31;;;;;;;7.53;6.82;;;17.20;75.50;;;;;;5005837;28;20759;-89
2021/09/04 05:04:57;;;;;;;8.68;7.85;;;17.20;75.30;;;;;;5005423;28;20220;-89
2021/09/04 05:07:23;;;;;;;7.45;6.38;;;17.20;74.90;;;;;;5007282;28;20247;-87
2021/09/04 05:09:49;;;;;;;8.23;7.43;;;17.20;74.30;;;;;;5006869;28;20188;-87
2021/09/04 05:12:15;;;;;;;7.80;6.93;;;17.20;74.50;;;;;;5004719;28;20189;-87
2021/09/04 05:14:40;;;;;;;7.70;6.93;;;17.10;74.70;;;;;;5005736;28;20220;-87
2021/09/04 05:17:06;;;;;;;7.60;6.40;;;17.10;74.30;;;;;;5006440;28;20184;-87
2021/09/04 05:19:32;;;;;;;7.17;6.43;;;17.10;74.70;;;;;;5004669;28;20258;-89
2021/09/04 05:21:58;;;;;;;8.20;6.77;;;17.10;75.80;;;;;;5004222;28;20687;-89
2021/09/04 05:24:24;;;;;;;10.17;6.97;;;17.10;75.10;;;;;;5005688;28;20231;-88
2021/09/04 05:26:50;;;;;;;8.68;6.35;;;17.00;74.30;;;;;;5022381;28;20260;-89
2021/09/04 05:29:15;;;;;;;10.20;7.47;;;17.00;74.90;;;;;;5010679;28;20208;-87
2021/09/04 05:31:41;;;;;;;11.73;7.33;;;17.10;75.10;;;;;;5007727;28;20697;-86
2021/09/04 05:34:07;;;;;;;10.80;6.97;;;17.10;75.00;;;;;;5011473;28;20215;-87
2021/09/04 05:36:33;;;;;;;7.83;6.87;;;17.10;74.60;;;;;;5006382;28;20223;-87
2021/09/04 05:38:59;;;;;;;9.37;7.50;;;17.10;74.80;;;;;;5007626;28;20236;-87
2021/09/04 05:41:25;;;;;;;10.43;7.67;;;17.00;75.20;;;;;;5003926;28;20188;-88
2021/09/04 05:43:51;;;;;;;9.13;7.43;;;17.00;74.40;;;;;;5007267;28;20215;-86
2021/09/04 05:46:17;;;;;;;8.27;6.83;;;16.90;75.40;;;;;;5010057;28;20205;-87
2021/09/04 05:48:43;;;;;;;7.97;7.17;;;17.00;76.10;;;;;;5005959;28;20194;-89
2021/09/04 05:51:09;;;;;;;7.67;6.90;;;17.00;75.60;;;;;;5006366;28;20204;-89
2021/09/04 05:53:36;;;;;;;11.43;7.07;;;17.00;75.80;;;;;;5005142;28;20204;-89
2021/09/04 05:56:02;;;;;;;7.27;6.33;;;17.00;76.20;;;;;;5019183;28;20206;-89
2021/09/04 05:58:28;;;;;;;7.23;6.40;;;17.10;75.70;;;;;;5006520;28;20213;-89
2021/09/04 06:00:54;;;;;;;7.20;6.50;;;17.10;76.00;;;;;;5005060;28;20275;-89
2021/09/04 06:03:20;;;;;;;8.03;7.30;;;17.00;76.50;;;;;;5001330;28;20246;-83
2021/09/04 06:05:45;;;;;;;7.97;7.17;;;17.10;76.80;;;;;;5006200;28;20256;-87
2021/09/04 06:08:11;;;;;;;8.37;7.57;;;17.10;77.00;;;;;;5003176;28;20207;-84
2021/09/04 06:10:37;;;;;;;10.17;8.00;;;17.10;77.60;;;;;;5020095;28;20186;-87
2021/09/04 06:13:03;;;;;;;9.20;8.40;;;17.10;77.90;;;;;;5011377;28;20226;-85
2021/09/04 06:15:29;;;;;;;9.80;9.00;;;17.20;77.50;;;;;;5003439;28;20221;-85
2021/09/04 06:17:55;;;;;;;9.10;8.20;;;17.10;78.00;;;;;;5007089;28;20914;-85
2021/09/04 06:20:21;;;;;;;9.67;8.87;;;17.10;78.50;;;;;;5007232;28;20500;-86
2021/09/04 06:22:47;;;;;;;10.03;9.07;;;17.00;78.80;;;;;;5005672;28;20200;-85
2021/09/04 06:25:16;;;;;;;10.20;9.07;;;16.80;80.00;;;;;;5002183;28;20210;-87
2021/09/04 06:27:42;;;;;;;9.97;9.00;;;16.70;80.70;;;;;;5003590;28;20227;-87
2021/09/04 06:30:08;;;;;;;10.70;9.60;;;16.60;81.30;;;;;;5017531;28;20662;-86
2021/09/04 06:32:35;;;;;;;9.63;8.73;;;16.60;81.50;;;;;;5005370;28;20198;-88
2021/09/04 06:35:04;;;;;;;10.93;9.93;;;16.50;81.80;;;;;;5002580;28;20212;-87
2021/09/04 06:37:30;;;;;;;9.67;8.87;;;16.50;82.10;;;;;;4993540;28;20214;-89
2021/09/04 06:39:56;;;;;;;10.13;8.87;;;16.60;82.10;;;;;;5005307;28;20285;-87
2021/09/04 06:42:22;;;;;;;10.37;9.33;;;16.70;81.60;;;;;;4997097;28;21292;-88
2021/09/04 06:44:48;;;;;;;11.90;9.63;;;16.60;81.80;;;;;;4999631;28;20221;-88
2021/09/04 06:47:13;;;;;;;10.40;9.40;;;16.60;81.50;;;;;;5001175;28;20199;-88
2021/09/04 06:49:39;;;;;;;9.73;8.93;;;16.70;81.60;;;;;;5003035;28;20247;-87
2021/09/04 06:52:05;;;;;;;9.80;8.80;;;16.80;81.50;;;;;;5003172;28;20205;-88
2021/09/04 06:54:31;;;;;;;9.97;9.07;;;16.90;80.90;;;;;;4998865;28;20807;-88
2021/09/04 06:56:57;;;;;;;10.37;9.30;;;17.10;80.40;;;;;;5009834;28;20198;-86
2021/09/04 06:59:23;;;;;;;10.10;9.10;;;17.10;80.40;;;;;;4999596;28;20245;-86
2021/09/04 07:01:51;;;;;;;11.03;9.40;;;17.20;80.10;;;;;;4992864;28;20215;-86
2021/09/04 07:04:18;;;;;;;9.57;8.77;;;17.30;81.00;;;;;;4998743;28;20213;-92
2021/09/04 07:06:44;;;;;;;11.10;10.03;;;17.30;80.10;;;;;;5008831;28;20498;-91
2021/09/04 07:09:10;;;;;;;11.73;10.37;;;17.40;79.30;;;;;;5032655;28;20200;-89
2021/09/04 07:11:36;;;;;;;10.80;10.00;;;17.40;79.30;;;;;;5002410;28;20241;-90
2021/09/04 07:14:02;;;;;;;10.03;9.13;;;17.30;79.90;;;;;;5002257;28;20216;-92
2021/09/04 07:16:28;;;;;;;10.93;9.93;;;17.40;79.80;;;;;;5023324;28;20196;-90
2021/09/04 07:18:54;;;;;;;10.67;9.57;;;17.50;79.50;;;;;;5019536;28;20218;-90
2021/09/04 07:21:20;;;;;;;9.70;8.87;;;17.60;79.50;;;;;;4999281;28;20197;-90
2021/09/04 07:23:46;;;;;;;10.20;9.02;;;17.60;79.30;;;;;;5002322;28;20591;-89
2021/09/04 07:26:12;;;;;;;10.55;9.52;;;17.80;79.00;;;;;;5002168;28;20216;-90
2021/09/04 07:28:38;;;;;;;10.40;9.50;;;17.90;79.00;;;;;;5002514;28;20251;-91
2021/09/04 07:31:07;;;;;;;11.25;9.23;;;17.90;78.80;;;;;;4993363;28;20289;-89
2021/09/04 07:33:33;;;;;;;10.10;9.20;;;17.90;78.70;;;;;;4993462;28;20217;-90
2021/09/04 07:35:59;;;;;;;12.40;11.25;;;18.00;78.80;;;;;;4975754;28;20291;-91
2021/09/04 07:38:25;;;;;;;12.93;10.80;;;18.00;78.50;;;;;;5003049;28;20208;-90
2021/09/04 07:40:52;;;;;;;12.13;10.98;;;18.00;78.50;;;;;;5019439;28;20194;-90
2021/09/04 07:43:18;;;;;;;11.23;10.23;;;18.10;78.00;;;;;;5010150;28;20202;-90
2021/09/04 07:45:47;;;;;;;11.80;10.35;;;18.20;78.20;;;;;;5004906;28;20215;-90
2021/09/04 07:48:13;;;;;;;11.27;10.05;;;18.20;77.80;;;;;;4974174;28;20221;-89
2021/09/04 07:50:39;;;;;;;11.75;10.68;;;18.40;77.60;;;;;;5008734;28;20207;-91
2021/09/04 07:53:05;;;;;;;11.55;10.55;;;18.50;77.50;;;;;;4987192;28;20806;-90
2021/09/04 07:55:31;;;;;;;11.88;10.70;;;18.50;77.80;;;;;;5009616;28;20219;-91
2021/09/04 07:57:57;;;;;;;11.18;10.07;;;18.60;76.80;;;;;;5008244;28;20228;-90
2021/09/04 08:00:23;;;;;;;11.25;10.10;;;18.60;76.90;;;;;;5001239;28;20217;-90
2021/09/04 08:02:49;;;;;;;11.30;10.30;;;18.60;76.40;;;;;;5005542;28;20654;-90
2021/09/04 08:05:14;;;;;;;10.23;9.23;;;18.60;76.90;;;;;;5012845;28;20225;-91
2021/09/04 08:07:40;;;;;;;10.52;9.10;;;18.80;76.40;;;;;;4998750;28;20202;-89
2021/09/04 08:10:06;;;;;;;11.00;9.77;;;18.80;75.80;;;;;;5001291;28;20228;-89
2021/09/04 08:12:33;;;;;;;10.23;9.27;;;18.80;75.50;;;;;;4980554;28;20199;-90
2021/09/04 08:15:02;;;;;;;10.43;9.35;;;19.00;75.00;;;;;;4992080;28;20575;-92
2021/09/04 08:17:28;;;;;;;9.98;9.00;;;19.10;74.70;;;;;;4993297;28;20178;-90
2021/09/04 08:19:54;;;;;;;11.77;9.85;;;19.10;74.70;;;;;;5001491;28;20198;-88
2021/09/04 08:22:20;;;;;;;10.43;9.52;;;19.10;74.90;;;;;;5027748;28;20696;-90
2021/09/04 08:24:46;;;;;;;10.32;9.43;;;19.00;75.00;;;;;;5001264;28;20214;-88
2021/09/04 08:27:11;;;;;;;10.60;9.68;;;19.20;74.80;;;;;;4998449;28;20198;-89
2021/09/04 08:29:37;;;;;;;11.10;10.10;;;19.30;74.00;;;;;;5004891;28;20313;-88
2021/09/04 08:32:04;;;;;;;11.90;9.70;;;19.30;74.30;;;;;;5008710;28;20201;-89
2021/09/04 08:34:30;;;;;;;9.55;8.75;;;19.40;75.20;;;;;;5002707;28;20252;-86
2021/09/04 08:36:56;;;;;;;10.23;9.05;;;19.60;74.10;;;;;;4980198;28;20404;-85
2021/09/04 08:39:22;;;;;;;10.88;10.07;;;19.70;73.80;;;;;;4996881;28;20269;-87
2021/09/04 08:41:48;;;;;;;9.90;9.00;;;19.70;72.90;;;;;;4990714;28;20202;-86
2021/09/04 08:44:14;;;;;;;11.25;10.23;;;20.10;72.00;;;;;;5004699;28;20245;-89
2021/09/04 08:46:39;;;;;;;11.40;10.40;;;20.20;70.80;;;;;;4997059;28;20194;-88
2021/09/04 08:49:07;;;;;;;11.05;9.43;;;20.30;70.10;;;;;;4998684;28;20274;-88
2021/09/04 08:51:33;;;;;;;10.65;9.65;;;20.50;70.10;;;;;;5001442;28;20194;-88
2021/09/04 08:53:59;;;;;;;10.75;9.80;;;20.70;69.90;;;;;;5028024;28;20231;-91
2021/09/04 08:56:25;;;;;;;10.65;9.55;;;20.60;69.50;;;;;;5017394;28;20252;-91
2021/09/04 08:58:51;;;;;;;11.13;9.98;;;20.70;70.70;;;;;;5007566;28;20207;-92
2021/09/04 09:01:26;;;;;;;13.90;9.13;;;20.80;70.70;;;;;;5018723;28;20200;-91
2021/09/04 09:04:01;;;;;;;11.10;10.00;;;21.00;68.60;;;;;;5014176;28;20243;-91
2021/09/04 09:06:29;;;;;;;10.18;9.25;;;21.00;67.80;;;;;;5024459;28;20193;-91
2021/09/04 09:08:55;;;;;;;10.50;9.60;;;21.10;68.30;;;;;;5007512;28;20205;-90
2021/09/04 09:11:21;;;;;;;10.63;9.25;;;21.20;67.20;;;;;;5033535;28;20197;-90
2021/09/04 09:13:47;;;;;;;9.27;8.52;;;21.30;67.40;;;;;;5003901;28;20196;-91
2021/09/04 09:16:18;;;;;;;11.48;9.88;;;21.40;67.10;;;;;;5019298;28;20204;-90
2021/09/04 09:19:02;;;;;;;10.77;9.88;;;21.30;67.50;;;;;;5006368;28;20300;-91
2021/09/04 09:21:32;;;;;;;11.25;9.30;;;21.50;67.10;;;;;;5025741;28;20187;-90
2021/09/04 09:24:20;;;;;;;11.07;9.95;;;21.80;67.10;;;;;;5031213;28;20297;-90
2021/09/04 09:27:02;;;;;;;10.23;9.32;;;22.00;64.70;;;;;;5012222;28;20193;-90
2021/09/04 09:29:36;;;;;;;11.85;9.23;;;21.90;65.60;;;;;;5008716;28;20196;-89
2021/09/04 09:32:07;;;;;;;10.45;9.52;;;21.90;65.80;;;;;;5002954;28;20227;-90
2021/09/04 09:34:38;;;;;;;10.30;9.38;;;22.00;64.80;;;;;;5003751;28;20353;-90
2021/09/04 09:37:06;;;;;;;10.02;9.10;;;22.10;64.90;;;;;;5017725;28;20791;-91
2021/09/04 09:39:35;;;;;;;9.88;9.07;;;22.30;65.50;;;;;;4989683;28;20307;-90
2021/09/04 09:42:06;;;;;;;10.73;9.73;;;22.50;63.30;;;;;;5000113;28;20197;-90
2021/09/04 09:44:35;;;;;;;10.63;9.63;;;22.80;62.50;;;;;;5018538;28;20225;-91
2021/09/04 09:47:03;;;;;;;9.95;9.13;;;22.70;62.90;;;;;;5012418;28;20279;-89
2021/09/04 09:49:36;;;;;;;9.00;8.20;;;22.90;63.40;;;;;;5001376;28;20201;-90
2021/09/04 09:52:07;;;;;;;9.60;8.70;;;23.40;60.40;;;;;;5000205;28;20634;-92
2021/09/04 09:54:34;;;;;;;10.50;9.40;;;23.60;60.20;;;;;;5001905;28;20280;-90
2021/09/04 09:57:02;;;;;;;9.80;8.77;;;23.80;59.70;;;;;;4983973;28;20202;-91
2021/09/04 09:59:28;;;;;;;10.18;9.20;;;23.80;59.20;;;;;;5001556;28;20211;-91
2021/09/04 10:01:56;;;;;;;10.35;9.32;;;24.00;58.80;;;;;;5000933;28;20213;-91
2021/09/04 10:04:27;;;;;;;13.00;9.75;;;24.00;59.50;;;;;;5002463;28;20209;-91
2021/09/04 10:06:54;;;;;;;9.68;8.88;;;23.90;59.30;;;;;;4999032;28;20186;-91
2021/09/04 10:09:22;;;;;;;9.88;8.88;;;24.00;59.60;;;;;;5000969;28;20219;-91
2021/09/04 10:11:49;;;;;;;9.63;8.75;;;24.10;59.40;;;;;;4984811;28;20194;-90
2021/09/04 10:14:15;;;;;;;10.68;8.90;;;24.40;58.30;;;;;;4999524;28;20226;-90
2021/09/04 10:16:41;;;;;;;9.45;8.65;;;24.60;57.20;;;;;;5001116;28;20194;-89
2021/09/04 10:19:08;;;;;;;9.45;8.55;;;24.60;57.20;;;;;;5000658;28;20356;-90
2021/09/04 10:21:38;;;;;;;10.80;9.70;;;24.70;56.90;;;;;;5000120;28;20204;-90
2021/09/04 10:24:07;;;;;;;9.77;8.95;;;25.10;55.60;;;;;;5007521;23;21235;-90
2021/09/04 10:26:41;;;;;;;10.63;9.50;;;25.30;55.50;;;;;;5002120;28;20195;-88
2021/09/04 10:29:18;;;;;;;9.82;8.63;;;25.20;55.20;;;;;;4999866;28;20186;-90
2021/09/04 10:32:02;;;;;;;12.70;8.93;;;25.40;55.00;;;;;;5009901;28;20731;-90
2021/09/04 10:34:37;;;;;;;10.13;8.90;;;25.40;53.60;;;;;;4999696;28;20210;-86
2021/09/04 10:37:07;;;;;;;13.80;9.50;;;25.50;54.00;;;;;;4994939;28;20194;-90
2021/09/04 10:39:56;;;;;;;9.70;8.85;;;25.40;54.90;;;;;;4998576;28;20244;-89
2021/09/04 10:42:33;;;;;;;9.13;8.32;;;25.50;54.60;;;;;;4997352;28;20680;-90
2021/09/04 10:45:03;;;;;;;9.57;8.65;;;25.70;54.00;;;;;;4999283;28;20221;-90
2021/09/04 10:47:40;;;;;;;9.55;8.75;;;25.80;53.20;;;;;;5006999;28;20214;-91
2021/09/04 10:50:15;;;;;;;8.90;8.10;;;26.10;52.50;;;;;;4999132;28;20190;-90
2021/09/04 10:52:46;;;;;;;9.95;9.15;;;26.20;53.20;;;;;;4990822;28;20190;-88
2021/09/04 10:55:37;;;;;;;8.93;8.13;;;26.10;52.20;;;;;;4991794;28;20218;-89
2021/09/04 10:58:13;;;;;;;10.43;9.00;;;26.00;53.50;;;;;;5005712;28;20214;-90
2021/09/04 11:00:44;;;;;;;9.68;8.68;;;26.20;52.00;;;;;;4997411;28;20265;-87
2021/09/04 11:03:17;;;;;;;9.18;8.38;;;26.40;51.70;;;;;;4996479;28;20784;-86
2021/09/04 11:05:45;;;;;;;9.23;8.13;;;26.60;51.00;;;;;;4999989;28;20273;-92
2021/09/04 11:08:12;;;;;;;9.00;8.20;;;27.00;49.40;;;;;;5004480;28;20197;-91
2021/09/04 11:10:42;;;;;;;8.75;8.02;;;27.20;49.50;;;;;;5003921;28;20217;-90
2021/09/04 11:13:16;;;;;;;10.07;8.23;;;27.20;49.40;;;;;;5001336;28;20234;-90
2021/09/04 11:15:47;;;;;;;9.75;8.85;;;27.00;49.30;;;;;;4999377;28;20214;-92
2021/09/04 11:18:18;;;;;;;13.98;8.95;;;27.20;49.40;;;;;;5007085;28;20282;-92
2021/09/04 11:20:55;;;;;;;9.70;8.80;;;27.60;47.80;;;;;;5016281;28;20246;-90
2021/09/04 11:23:29;;;;;;;9.75;8.50;;;27.90;46.80;;;;;;5016752;28;20182;-91
2021/09/04 11:25:55;;;;;;;9.25;8.45;;;28.10;46.50;;;;;;4999079;28;20234;-94
2021/09/04 11:28:31;;;;;;;9.98;9.18;;;28.30;46.90;;;;;;4993310;28;20194;-92
2021/09/04 11:30:59;;;;;;;9.10;8.30;;;28.40;46.50;;;;;;4991814;28;20246;-90
2021/09/04 11:33:25;;;;;;;10.93;8.55;;;28.70;43.60;;;;;;5000433;28;20195;-92
2021/09/04 11:35:51;;;;;;;9.30;8.60;;;28.60;43.80;;;;;;4994312;28;20202;-91
2021/09/04 11:38:17;;;;;;;14.98;8.23;;;28.70;43.80;;;;;;4995531;28;20214;-87
2021/09/04 11:40:47;;;;;;;11.15;8.80;;;28.80;43.60;;;;;;4995978;28;20179;-89
2021/09/04 11:43:16;;;;;;;8.68;7.97;;;28.50;43.80;;;;;;4994240;28;20193;-89
2021/09/04 11:45:42;;;;;;;9.00;8.07;;;28.30;45.00;;;;;;4995721;28;20305;-91
2021/09/04 11:48:13;;;;;;;9.13;7.93;;;28.50;44.00;;;;;;4992854;28;20190;-93
2021/09/04 11:50:40;;;;;;;8.00;7.22;;;28.70;44.10;;;;;;4991763;28;20211;-90
2021/09/04 11:53:13;;;;;;;8.50;7.70;;;28.80;42.30;;;;;;4992447;28;20190;-87
2021/09/04 11:55:39;;;;;;;8.85;8.15;;;29.10;42.40;;;;;;4991188;28;20345;-90
2021/09/04 11:58:11;;;;;;;9.10;8.35;;;29.30;40.70;;;;;;4991549;28;20222;-89
2021/09/04 12:00:39;;;;;;;8.93;8.02;;;29.40;41.30;;;;;;5001620;28;20658;-89
2021/09/04 12:03:09;;;;;;;9.48;8.68;;;29.50;42.40;;;;;;4993387;28;20254;-88
2021/09/04 12:05:37;;;;;;;8.23;7.63;;;30.10;39.90;;;;;;4997508;28;20214;-86
2021/09/04 12:08:09;;;;;;;10.80;8.50;;;30.40;38.70;;;;;;4995210;28;20277;-88
2021/09/04 12:10:38;;;;;;;8.65;7.85;;;30.40;39.90;;;;;;4989599;28;20198;-91
2021/09/04 12:13:06;;;;;;;8.95;7.40;;;30.80;39.80;;;;;;4996626;28;20600;-88
2021/09/04 12:15:34;;;;;;;9.52;7.60;;;31.00;38.30;;;;;;4994575;28;20708;-88
2021/09/04 12:18:01;;;;;;;11.40;9.18;;;31.00;37.30;;;;;;5010699;28;20590;-87
2021/09/04 12:20:31;;;;;;;10.82;9.82;;;31.20;36.00;;;;;;4994921;28;20250;-86
2021/09/04 12:23:01;;;;;;;8.63;8.02;;;30.70;37.10;;;;;;4989891;28;20190;-86
2021/09/04 12:25:32;;;;;;;8.80;8.00;;;30.80;36.50;;;;;;5001001;28;20253;-87
2021/09/04 12:28:07;;;;;;;8.45;7.75;;;30.90;37.10;;;;;;4996181;28;20527;-88
2021/09/04 12:30:56;;;;;;;11.43;10.48;;;31.20;36.60;;;;;;5000084;28;20229;-85
2021/09/04 12:33:21;;;;;;;27.67;25.85;;;31.20;36.90;;;;;;4991739;28;20186;-87
2021/09/04 12:35:47;;;;;;;9.20;7.97;;;31.70;35.10;;;;;;4991395;28;20211;-86
2021/09/04 12:38:21;;;;;;;8.85;8.05;;;31.70;36.00;;;;;;4990118;28;20219;-87
2021/09/04 12:41:08;;;;;;;7.82;7.20;;;31.40;35.10;;;;;;4995224;28;20183;-87
2021/09/04 12:43:54;;;;;;;7.60;7.00;;;31.40;34.50;;;;;;4996339;28;20760;-86